createdAt,value
2022-07-31T00:00:41.396Z,3.10
2022-07-31T00:01:41.394Z,3.00
2022-07-31T00:02:41.387Z,3.00
2022-07-31T00:03:41.427Z,2.90
2022-07-31T00:04:41.381Z,3.00
2022-07-31T00:05:41.933Z,3.00
2022-07-31T00:06:41.377Z,3.00
2022-07-31T00:07:41.374Z,3.10
2022-07-31T00:08:41.369Z,2.90
2022-07-31T00:09:53.332Z,3.10
2022-07-31T00:10:41.362Z,3.10
2022-07-31T00:11:41.362Z,3.10
2022-07-31T00:12:41.358Z,3.10
2022-07-31T00:13:57.527Z,3.40
2022-07-31T00:14:41.355Z,3.10
2022-07-31T00:15:41.349Z,3.10
2022-07-31T00:16:41.346Z,2.90
2022-07-31T00:17:41.346Z,3.10
2022-07-31T00:18:41.341Z,3.00
2022-07-31T00:19:41.340Z,2.90
2022-07-31T00:20:41.335Z,3.30
2022-07-31T00:21:41.332Z,3.10
2022-07-31T00:22:41.330Z,3.30
2022-07-31T00:23:41.326Z,3.20
2022-07-31T00:24:41.322Z,3.00
2022-07-31T00:25:41.321Z,3.20
2022-07-31T00:26:41.317Z,3.10
2022-07-31T00:27:41.316Z,3.30
2022-07-31T00:28:41.311Z,3.20
2022-07-31T00:29:41.305Z,3.00
2022-07-31T00:30:41.306Z,3.50
2022-07-31T00:31:41.303Z,2.90
2022-07-31T00:32:41.300Z,3.00
2022-07-31T00:33:41.296Z,3.00
2022-07-31T00:34:41.293Z,3.10
2022-07-31T00:35:41.291Z,3.10
2022-07-31T00:36:41.287Z,2.90
2022-07-31T00:37:41.465Z,2.80
2022-07-31T00:38:41.282Z,2.70
2022-07-31T00:39:41.279Z,2.80
2022-07-31T00:40:41.274Z,2.90
2022-07-31T00:41:41.272Z,2.70
2022-07-31T00:42:41.270Z,3.00
2022-07-31T00:43:41.268Z,3.00
2022-07-31T00:44:41.263Z,3.10
2022-07-31T00:45:41.261Z,2.80
2022-07-31T00:46:41.259Z,2.90
2022-07-31T00:47:41.254Z,2.80
2022-07-31T00:48:41.251Z,2.90
2022-07-31T00:49:41.249Z,2.80
2022-07-31T00:50:41.248Z,3.00
2022-07-31T00:51:41.242Z,2.70
2022-07-31T00:52:41.241Z,3.00
2022-07-31T00:53:41.237Z,2.60
2022-07-31T00:54:41.233Z,2.90
2022-07-31T00:55:51.479Z,3.00
2022-07-31T00:56:41.225Z,2.70
2022-07-31T00:57:41.223Z,2.70
2022-07-31T00:58:41.219Z,2.90
2022-07-31T00:59:41.218Z,2.90
2022-07-31T01:00:41.234Z,2.70
2022-07-31T01:01:41.300Z,2.70
2022-07-31T01:02:46.618Z,2.70
2022-07-31T01:03:41.203Z,3.00
2022-07-31T01:04:41.635Z,2.90
2022-07-31T01:05:41.196Z,2.80
2022-07-31T01:06:42.742Z,3.10
2022-07-31T01:07:41.190Z,3.00
2022-07-31T01:08:41.188Z,3.00
2022-07-31T01:09:41.182Z,3.20
2022-07-31T01:10:41.179Z,3.00
2022-07-31T01:11:41.176Z,3.00
2022-07-31T01:12:41.171Z,2.80
2022-07-31T01:13:41.169Z,2.90
2022-07-31T01:14:41.164Z,3.00
2022-07-31T01:15:41.163Z,3.10
2022-07-31T01:16:41.167Z,3.00
2022-07-31T01:17:41.157Z,3.20
2022-07-31T01:18:41.153Z,2.90
2022-07-31T01:19:42.812Z,2.80
2022-07-31T01:20:41.146Z,2.90
2022-07-31T01:21:41.143Z,2.90
2022-07-31T01:22:41.139Z,3.00
2022-07-31T01:23:41.135Z,3.30
2022-07-31T01:24:41.134Z,3.30
2022-07-31T01:25:41.129Z,3.30
2022-07-31T01:26:41.125Z,3.40
2022-07-31T01:27:49.215Z,3.40
2022-07-31T01:28:41.118Z,3.30
2022-07-31T01:29:41.116Z,3.20
2022-07-31T01:30:41.112Z,3.20
2022-07-31T01:31:41.114Z,3.20
2022-07-31T01:32:41.105Z,3.00
2022-07-31T01:33:41.103Z,3.20
2022-07-31T01:34:41.099Z,3.30
2022-07-31T01:35:41.095Z,3.20
2022-07-31T01:36:41.090Z,3.00
2022-07-31T01:37:41.088Z,3.10
2022-07-31T01:38:45.271Z,3.40
2022-07-31T01:39:41.080Z,3.40
2022-07-31T01:40:41.078Z,3.40
2022-07-31T01:41:41.071Z,3.20
2022-07-31T01:42:41.071Z,3.20
2022-07-31T01:43:41.066Z,3.30
2022-07-31T01:44:41.061Z,3.20
2022-07-31T01:45:41.060Z,3.10
2022-07-31T01:46:41.470Z,3.20
2022-07-31T01:47:41.050Z,3.50
2022-07-31T01:48:41.045Z,3.50
2022-07-31T01:49:41.043Z,3.30
2022-07-31T01:50:43.069Z,3.10
2022-07-31T01:51:41.036Z,3.00
2022-07-31T01:52:41.030Z,3.30
2022-07-31T01:53:41.031Z,3.10
2022-07-31T01:54:41.024Z,3.10
2022-07-31T01:55:56.447Z,3.10
2022-07-31T01:56:41.019Z,3.00
2022-07-31T01:57:41.019Z,3.10
2022-07-31T01:58:41.009Z,3.00
2022-07-31T01:59:44.787Z,3.10
2022-07-31T02:00:41.130Z,3.20
2022-07-31T02:01:41.081Z,2.80
2022-07-31T02:02:42.383Z,3.00
2022-07-31T02:03:44.245Z,2.90
2022-07-31T02:04:40.988Z,3.00
2022-07-31T02:05:40.984Z,2.90
2022-07-31T02:06:40.981Z,2.90
2022-07-31T02:07:40.978Z,3.20
2022-07-31T02:08:40.970Z,3.20
2022-07-31T02:09:52.298Z,3.00
2022-07-31T02:10:40.962Z,2.90
2022-07-31T02:11:53.790Z,3.20
2022-07-31T02:12:40.959Z,2.80
2022-07-31T02:13:40.955Z,2.90
2022-07-31T02:14:40.949Z,3.00
2022-07-31T02:15:40.946Z,2.90
2022-07-31T02:16:40.940Z,2.90
2022-07-31T02:17:40.939Z,3.00
2022-07-31T02:18:40.935Z,3.00
2022-07-31T02:19:40.931Z,2.90
2022-07-31T02:20:40.925Z,2.80
2022-07-31T02:21:40.924Z,3.00
2022-07-31T02:22:40.919Z,2.90
2022-07-31T02:23:40.916Z,3.10
2022-07-31T02:24:40.913Z,2.90
2022-07-31T02:25:40.908Z,3.00
2022-07-31T02:26:40.906Z,3.00
2022-07-31T02:27:57.158Z,2.90
2022-07-31T02:28:40.898Z,2.80
2022-07-31T02:29:40.892Z,2.80
2022-07-31T02:30:40.889Z,2.80
2022-07-31T02:31:40.885Z,3.00
2022-07-31T02:32:40.881Z,3.20
2022-07-31T02:33:40.968Z,3.20
2022-07-31T02:34:40.873Z,3.00
2022-07-31T02:35:44.043Z,3.10
2022-07-31T02:36:40.865Z,2.90
2022-07-31T02:37:40.861Z,3.10
2022-07-31T02:38:40.857Z,3.20
2022-07-31T02:39:40.853Z,3.00
2022-07-31T02:40:41.229Z,3.20
2022-07-31T02:41:40.846Z,3.00
2022-07-31T02:42:40.842Z,3.10
2022-07-31T02:43:40.837Z,2.90
2022-07-31T02:44:40.833Z,2.80
2022-07-31T02:45:40.826Z,2.90
2022-07-31T02:46:40.826Z,2.80
2022-07-31T02:47:40.821Z,3.00
2022-07-31T02:48:40.817Z,3.10
2022-07-31T02:49:40.816Z,3.20
2022-07-31T02:50:40.809Z,3.00
2022-07-31T02:51:43.570Z,3.10
2022-07-31T02:52:40.805Z,3.10
2022-07-31T02:53:40.798Z,3.30
2022-07-31T02:54:40.795Z,3.10
2022-07-31T02:55:40.795Z,3.20
2022-07-31T02:56:40.786Z,2.90
2022-07-31T02:57:40.782Z,2.90
2022-07-31T02:58:40.778Z,2.70
2022-07-31T02:59:40.776Z,2.90
2022-07-31T03:00:40.803Z,2.90
2022-07-31T03:01:40.838Z,2.80
2022-07-31T03:02:40.762Z,2.90
2022-07-31T03:03:40.758Z,2.90
2022-07-31T03:04:40.754Z,2.70
2022-07-31T03:05:40.752Z,2.90
2022-07-31T03:06:40.746Z,2.80
2022-07-31T03:07:40.744Z,2.90
2022-07-31T03:08:40.746Z,3.00
2022-07-31T03:09:40.731Z,2.60
2022-07-31T03:10:40.728Z,2.70
2022-07-31T03:11:40.789Z,2.70
2022-07-31T03:12:40.719Z,2.60
2022-07-31T03:13:40.719Z,2.60
2022-07-31T03:14:40.716Z,2.70
2022-07-31T03:15:40.707Z,3.00
2022-07-31T03:16:40.701Z,2.60
2022-07-31T03:17:41.254Z,2.80
2022-07-31T03:18:40.696Z,2.80
2022-07-31T03:19:40.691Z,2.70
2022-07-31T03:20:40.686Z,2.90
2022-07-31T03:21:40.700Z,2.70
2022-07-31T03:22:40.678Z,2.60
2022-07-31T03:23:40.677Z,3.00
2022-07-31T03:24:40.668Z,2.90
2022-07-31T03:25:40.666Z,2.80
2022-07-31T03:26:40.659Z,2.90
2022-07-31T03:27:40.660Z,2.80
2022-07-31T03:28:40.656Z,2.70
2022-07-31T03:29:43.457Z,2.90
2022-07-31T03:30:40.644Z,2.60
2022-07-31T03:31:40.640Z,2.80
2022-07-31T03:32:40.634Z,2.60
2022-07-31T03:33:40.631Z,2.80
2022-07-31T03:34:40.627Z,2.80
2022-07-31T03:35:44.622Z,2.60
2022-07-31T03:36:40.618Z,2.70
2022-07-31T03:37:40.614Z,2.80
2022-07-31T03:38:43.340Z,2.70
2022-07-31T03:39:40.603Z,2.60
2022-07-31T03:40:40.603Z,3.00
2022-07-31T03:41:40.597Z,2.70
2022-07-31T03:42:40.589Z,2.70
2022-07-31T03:43:44.409Z,2.70
2022-07-31T03:44:40.582Z,2.60
2022-07-31T03:45:40.576Z,2.80
2022-07-31T03:46:40.571Z,2.70
2022-07-31T03:47:40.569Z,2.60
2022-07-31T03:48:40.563Z,2.90
2022-07-31T03:49:40.559Z,2.80
2022-07-31T03:50:40.557Z,2.70
2022-07-31T03:51:40.554Z,2.60
2022-07-31T03:52:40.549Z,2.90
2022-07-31T03:53:40.546Z,3.00
2022-07-31T03:54:40.537Z,2.80
2022-07-31T03:55:40.540Z,2.90
2022-07-31T03:56:40.527Z,3.00
2022-07-31T03:57:40.524Z,2.90
2022-07-31T03:58:40.521Z,2.70
2022-07-31T03:59:48.422Z,2.70
2022-07-31T04:00:40.513Z,2.50
2022-07-31T04:01:56.766Z,2.70
2022-07-31T04:02:40.552Z,2.60
2022-07-31T04:03:40.497Z,2.60
2022-07-31T04:04:40.493Z,2.30
2022-07-31T04:05:40.489Z,2.50
2022-07-31T04:06:40.486Z,2.50
2022-07-31T04:07:40.479Z,2.30
2022-07-31T04:08:40.475Z,2.50
2022-07-31T04:09:40.472Z,2.50
2022-07-31T04:10:40.471Z,2.50
2022-07-31T04:11:40.463Z,2.50
2022-07-31T04:12:40.458Z,2.50
2022-07-31T04:13:40.452Z,2.40
2022-07-31T04:14:40.449Z,2.50
2022-07-31T04:15:40.445Z,2.60
2022-07-31T04:16:40.441Z,2.80
2022-07-31T04:17:40.437Z,2.60
2022-07-31T04:18:40.432Z,2.50
2022-07-31T04:19:40.427Z,2.60
2022-07-31T04:20:40.422Z,2.60
2022-07-31T04:21:40.421Z,2.70
2022-07-31T04:22:40.415Z,2.70
2022-07-31T04:23:40.409Z,2.70
2022-07-31T04:24:40.405Z,2.60
2022-07-31T04:25:40.401Z,2.70
2022-07-31T04:26:40.398Z,2.80
2022-07-31T04:27:47.893Z,2.70
2022-07-31T04:28:40.394Z,2.50
2022-07-31T04:29:40.387Z,2.50
2022-07-31T04:30:40.383Z,2.70
2022-07-31T04:31:40.377Z,2.50
2022-07-31T04:32:40.373Z,2.40
2022-07-31T04:33:46.516Z,2.70
2022-07-31T04:34:40.366Z,2.60
2022-07-31T04:35:40.363Z,2.60
2022-07-31T04:36:40.357Z,2.50
2022-07-31T04:37:40.355Z,2.90
2022-07-31T04:38:40.352Z,2.60
2022-07-31T04:39:40.348Z,3.30
2022-07-31T04:40:40.341Z,3.90
2022-07-31T04:41:40.339Z,4.50
2022-07-31T04:42:40.337Z,4.60
2022-07-31T04:43:40.333Z,4.60
2022-07-31T04:44:40.329Z,4.90
2022-07-31T04:45:40.325Z,5.10
2022-07-31T04:46:40.322Z,5.10
2022-07-31T04:47:40.319Z,5.40
2022-07-31T04:48:41.328Z,5.30
2022-07-31T04:49:40.315Z,5.70
2022-07-31T04:50:40.310Z,6.10
2022-07-31T04:51:40.308Z,6.40
2022-07-31T04:52:40.304Z,7.00
2022-07-31T04:53:40.300Z,7.20
2022-07-31T04:54:40.299Z,7.50
2022-07-31T04:55:40.300Z,8.00
2022-07-31T04:56:40.290Z,7.90
2022-07-31T04:57:40.289Z,7.80
2022-07-31T04:58:40.287Z,8.10
2022-07-31T04:59:59.830Z,8.10
2022-07-31T05:00:40.283Z,7.90
2022-07-31T05:01:40.338Z,7.40
2022-07-31T05:02:40.277Z,7.90
2022-07-31T05:03:40.275Z,7.90
2022-07-31T05:04:40.272Z,8.50
2022-07-31T05:05:40.273Z,8.40
2022-07-31T05:06:40.268Z,8.40
2022-07-31T05:07:40.267Z,8.90
2022-07-31T05:08:40.265Z,9.00
2022-07-31T05:09:40.264Z,8.50
2022-07-31T05:10:40.261Z,8.60
2022-07-31T05:11:40.260Z,8.40
2022-07-31T05:12:40.257Z,8.40
2022-07-31T05:13:40.257Z,8.50
2022-07-31T05:14:40.256Z,8.90
2022-07-31T05:15:40.257Z,9.30
2022-07-31T05:16:40.253Z,9.60
2022-07-31T05:17:40.251Z,9.80
2022-07-31T05:18:40.250Z,10.10
2022-07-31T05:19:40.251Z,11.20
2022-07-31T05:20:40.248Z,11.20
2022-07-31T05:21:53.144Z,11.90
2022-07-31T05:22:40.247Z,11.50
2022-07-31T05:23:40.248Z,11.20
2022-07-31T05:24:40.246Z,10.80
2022-07-31T05:25:40.245Z,11.50
2022-07-31T05:26:40.246Z,12.20
2022-07-31T05:27:41.339Z,12.20
2022-07-31T05:28:40.243Z,12.90
2022-07-31T05:29:40.243Z,13.00
2022-07-31T05:30:40.245Z,13.90
2022-07-31T05:31:40.245Z,14.20
2022-07-31T05:32:40.246Z,14.80
2022-07-31T05:33:40.242Z,13.70
2022-07-31T05:34:40.245Z,12.80
2022-07-31T05:35:40.258Z,12.00
2022-07-31T05:36:40.243Z,11.80
2022-07-31T05:37:40.245Z,11.50
2022-07-31T05:38:40.246Z,11.30
2022-07-31T05:39:40.243Z,11.80
2022-07-31T05:40:40.244Z,11.40
2022-07-31T05:41:40.245Z,11.20
2022-07-31T05:42:40.246Z,10.80
2022-07-31T05:43:40.248Z,11.30
2022-07-31T05:44:40.249Z,11.20
2022-07-31T05:45:40.246Z,11.70
2022-07-31T05:46:40.249Z,11.70
2022-07-31T05:47:41.153Z,11.70
2022-07-31T05:48:40.247Z,11.80
2022-07-31T05:49:40.252Z,11.50
2022-07-31T05:50:40.248Z,12.20
2022-07-31T05:51:40.250Z,11.60
2022-07-31T05:52:40.248Z,12.00
2022-07-31T05:53:40.249Z,12.80
2022-07-31T05:54:40.251Z,12.10
2022-07-31T05:55:40.252Z,11.80
2022-07-31T05:56:40.252Z,11.80
2022-07-31T05:57:40.251Z,11.90
2022-07-31T05:58:40.252Z,12.20
2022-07-31T05:59:40.253Z,12.40
2022-07-31T06:00:40.255Z,13.10
2022-07-31T06:01:40.313Z,13.00
2022-07-31T06:02:40.258Z,14.10
2022-07-31T06:03:52.131Z,14.20
2022-07-31T06:04:40.256Z,13.60
2022-07-31T06:05:40.259Z,14.10
2022-07-31T06:06:40.259Z,13.70
2022-07-31T06:07:40.260Z,13.40
2022-07-31T06:08:40.262Z,14.10
2022-07-31T06:09:40.271Z,15.10
2022-07-31T06:10:40.275Z,14.70
2022-07-31T06:11:40.267Z,14.80
2022-07-31T06:12:40.267Z,14.80
2022-07-31T06:13:40.267Z,14.20
2022-07-31T06:14:40.272Z,15.40
2022-07-31T06:15:40.271Z,15.10
2022-07-31T06:16:40.271Z,14.60
2022-07-31T06:17:44.508Z,14.00
2022-07-31T06:18:40.276Z,14.10
2022-07-31T06:19:40.280Z,14.20
2022-07-31T06:20:40.282Z,13.80
2022-07-31T06:21:40.282Z,14.40
2022-07-31T06:22:40.280Z,15.50
2022-07-31T06:23:40.289Z,13.60
2022-07-31T06:24:42.562Z,13.10
2022-07-31T06:25:40.297Z,12.70
2022-07-31T06:26:40.290Z,12.80
2022-07-31T06:27:40.292Z,13.00
2022-07-31T06:28:48.161Z,13.20
2022-07-31T06:29:41.655Z,13.40
2022-07-31T06:30:40.301Z,12.40
2022-07-31T06:31:40.305Z,12.20
2022-07-31T06:32:40.304Z,12.20
2022-07-31T06:33:40.306Z,12.50
2022-07-31T06:34:40.309Z,11.30
2022-07-31T06:35:40.313Z,10.80
2022-07-31T06:36:40.316Z,10.30
2022-07-31T06:37:40.316Z,9.60
2022-07-31T06:38:40.320Z,8.40
2022-07-31T06:39:55.659Z,8.40
2022-07-31T06:40:40.325Z,7.90
2022-07-31T06:41:40.327Z,7.10
2022-07-31T06:42:40.333Z,6.60
2022-07-31T06:43:40.335Z,6.70
2022-07-31T06:44:40.479Z,6.20
2022-07-31T06:45:51.079Z,6.10
2022-07-31T06:46:48.609Z,5.80
2022-07-31T06:47:40.346Z,5.80
2022-07-31T06:48:40.348Z,5.30
2022-07-31T06:49:40.410Z,5.20
2022-07-31T06:50:40.355Z,4.70
2022-07-31T06:51:40.357Z,4.70
2022-07-31T06:52:40.365Z,4.60
2022-07-31T06:53:40.363Z,4.40
2022-07-31T06:54:40.369Z,4.30
2022-07-31T06:55:44.544Z,4.50
2022-07-31T06:56:40.377Z,4.60
2022-07-31T06:57:40.378Z,4.20
2022-07-31T06:58:40.381Z,4.10
2022-07-31T06:59:40.878Z,4.10
2022-07-31T07:00:40.389Z,4.30
2022-07-31T07:01:40.569Z,4.00
2022-07-31T07:02:40.398Z,4.10
2022-07-31T07:03:40.399Z,4.00
2022-07-31T07:05:01.530Z,4.00
2022-07-31T07:05:45.019Z,3.90
2022-07-31T07:06:40.412Z,3.70
2022-07-31T07:07:40.418Z,3.70
2022-07-31T07:08:40.419Z,3.60
2022-07-31T07:09:40.425Z,3.70
2022-07-31T07:10:40.429Z,3.60
2022-07-31T07:11:40.434Z,3.60
2022-07-31T07:12:40.439Z,3.70
2022-07-31T07:13:45.732Z,3.70
2022-07-31T07:14:40.448Z,3.70
2022-07-31T07:15:40.455Z,4.20
2022-07-31T07:16:40.454Z,4.30
2022-07-31T07:17:40.460Z,3.90
2022-07-31T07:18:40.467Z,3.90
2022-07-31T07:19:40.471Z,3.90
2022-07-31T07:20:40.475Z,3.80
2022-07-31T07:21:40.476Z,3.80
2022-07-31T07:22:40.482Z,3.90
2022-07-31T07:23:40.487Z,4.00
2022-07-31T07:24:40.493Z,4.10
2022-07-31T07:25:40.497Z,4.20
2022-07-31T07:26:40.502Z,4.40
2022-07-31T07:27:40.505Z,4.60
2022-07-31T07:28:40.510Z,4.50
2022-07-31T07:29:40.516Z,4.60
2022-07-31T07:30:40.520Z,4.80
2022-07-31T07:31:40.528Z,4.80
2022-07-31T07:32:40.531Z,5.00
2022-07-31T07:33:42.763Z,5.00
2022-07-31T07:34:40.543Z,4.90
2022-07-31T07:35:40.546Z,5.10
2022-07-31T07:36:40.552Z,5.30
2022-07-31T07:37:40.558Z,5.30
2022-07-31T07:38:40.563Z,5.50
2022-07-31T07:39:40.568Z,5.60
2022-07-31T07:40:40.574Z,5.70
2022-07-31T07:41:40.579Z,5.80
2022-07-31T07:42:40.585Z,6.10
2022-07-31T07:43:40.592Z,5.90
2022-07-31T07:44:40.596Z,5.80
2022-07-31T07:45:40.603Z,5.80
2022-07-31T07:46:40.609Z,5.90
2022-07-31T07:48:05.198Z,6.10
2022-07-31T07:48:40.622Z,6.30
2022-07-31T07:49:40.627Z,6.30
2022-07-31T07:50:40.636Z,6.40
2022-07-31T07:51:59.118Z,6.60
2022-07-31T07:52:43.856Z,6.50
2022-07-31T07:53:40.663Z,6.80
2022-07-31T07:54:40.676Z,5.70
2022-07-31T07:55:40.670Z,4.50
2022-07-31T07:56:40.671Z,4.70
2022-07-31T07:57:40.679Z,4.90
2022-07-31T07:58:40.686Z,4.50
2022-07-31T07:59:40.697Z,5.10
2022-07-31T08:00:40.847Z,5.70
2022-07-31T08:01:40.777Z,3.80
2022-07-31T08:02:40.714Z,4.40
2022-07-31T08:03:48.460Z,4.70
2022-07-31T08:04:43.587Z,4.10
2022-07-31T08:05:40.733Z,4.70
2022-07-31T08:06:40.740Z,3.80
2022-07-31T08:07:42.147Z,4.30
2022-07-31T08:08:40.751Z,4.40
2022-07-31T08:09:40.758Z,5.60
2022-07-31T08:10:40.765Z,5.50
2022-07-31T08:11:40.770Z,5.40
2022-07-31T08:12:40.776Z,5.20
2022-07-31T08:13:41.011Z,5.60
2022-07-31T08:14:40.788Z,5.60
2022-07-31T08:15:40.796Z,5.70
2022-07-31T08:16:40.801Z,5.60
2022-07-31T08:17:40.806Z,5.70
2022-07-31T08:18:40.812Z,5.90
2022-07-31T08:19:40.819Z,5.70
2022-07-31T08:20:40.824Z,5.90
2022-07-31T08:21:40.828Z,5.90
2022-07-31T08:22:40.836Z,5.80
2022-07-31T08:23:40.841Z,5.90
2022-07-31T08:24:40.850Z,6.10
2022-07-31T08:25:40.851Z,6.00
2022-07-31T08:26:40.858Z,6.00
2022-07-31T08:27:40.863Z,5.90
2022-07-31T08:28:41.465Z,6.00
2022-07-31T08:29:40.872Z,5.90
2022-07-31T08:30:40.878Z,5.60
2022-07-31T08:31:40.882Z,5.70
2022-07-31T08:32:40.885Z,5.40
2022-07-31T08:33:40.891Z,5.40
2022-07-31T08:34:42.261Z,5.20
2022-07-31T08:35:40.901Z,5.10
2022-07-31T08:36:40.903Z,5.20
2022-07-31T08:38:01.602Z,5.00
2022-07-31T08:38:40.911Z,5.20
2022-07-31T08:39:40.916Z,5.00
2022-07-31T08:40:43.272Z,4.90
2022-07-31T08:41:40.919Z,4.20
2022-07-31T08:42:40.927Z,3.20
2022-07-31T08:44:02.285Z,2.60
2022-07-31T08:44:40.931Z,2.60
2022-07-31T08:45:40.934Z,2.50
2022-07-31T08:46:40.976Z,2.20
2022-07-31T08:47:40.939Z,2.30
2022-07-31T08:48:40.944Z,2.50
2022-07-31T08:49:41.013Z,2.30
2022-07-31T08:50:40.950Z,2.00
2022-07-31T08:51:52.532Z,2.20
2022-07-31T08:52:40.955Z,2.20
2022-07-31T08:53:40.958Z,2.30
2022-07-31T08:54:40.961Z,2.10
2022-07-31T08:55:56.200Z,2.10
2022-07-31T08:56:40.965Z,2.20
2022-07-31T08:57:40.971Z,2.20
2022-07-31T08:58:40.974Z,2.00
2022-07-31T08:59:40.976Z,2.10
2022-07-31T09:00:41.002Z,2.30
2022-07-31T09:01:41.076Z,2.10
2022-07-31T09:02:40.989Z,2.30
2022-07-31T09:03:40.993Z,2.20
2022-07-31T09:04:40.996Z,2.20
2022-07-31T09:05:41.959Z,2.20
2022-07-31T09:06:41.006Z,2.20
2022-07-31T09:07:41.005Z,2.10
2022-07-31T09:08:41.008Z,2.10
2022-07-31T09:09:51.113Z,2.10
2022-07-31T09:10:41.822Z,2.00
2022-07-31T09:11:41.019Z,2.20
2022-07-31T09:12:41.021Z,2.20
2022-07-31T09:13:41.024Z,2.10
2022-07-31T09:14:41.027Z,2.10
2022-07-31T09:15:41.032Z,2.20
2022-07-31T09:16:41.031Z,2.20
2022-07-31T09:17:41.036Z,2.50
2022-07-31T09:18:41.037Z,2.30
2022-07-31T09:19:52.080Z,2.50
2022-07-31T09:20:41.041Z,2.70
2022-07-31T09:21:41.046Z,2.50
2022-07-31T09:22:41.047Z,2.20
2022-07-31T09:23:41.048Z,2.10
2022-07-31T09:24:41.052Z,2.30
2022-07-31T09:25:41.054Z,2.10
2022-07-31T09:26:41.085Z,2.30
2022-07-31T09:27:41.061Z,2.20
2022-07-31T09:28:41.063Z,2.10
2022-07-31T09:29:41.064Z,2.10
2022-07-31T09:30:56.341Z,2.00
2022-07-31T09:31:41.064Z,2.00
2022-07-31T09:32:41.068Z,2.10
2022-07-31T09:33:45.487Z,2.00
2022-07-31T09:34:41.075Z,2.10
2022-07-31T09:35:41.626Z,2.00
2022-07-31T09:36:41.074Z,2.00
2022-07-31T09:37:41.075Z,1.90
2022-07-31T09:38:41.091Z,1.90
2022-07-31T09:39:52.259Z,1.90
2022-07-31T09:40:55.204Z,1.90
2022-07-31T09:42:01.477Z,1.90
2022-07-31T09:42:45.556Z,1.90
2022-07-31T09:43:48.433Z,2.00
2022-07-31T09:44:41.088Z,1.90
2022-07-31T09:45:48.084Z,2.00
2022-07-31T09:46:41.096Z,1.80
2022-07-31T09:47:41.094Z,1.90
2022-07-31T09:48:41.097Z,1.90
2022-07-31T09:49:41.271Z,2.00
2022-07-31T09:50:41.098Z,2.00
2022-07-31T09:51:41.098Z,2.00
2022-07-31T09:52:41.099Z,1.90
2022-07-31T09:53:43.518Z,1.90
2022-07-31T09:54:41.103Z,2.10
2022-07-31T09:55:41.105Z,1.80
2022-07-31T09:56:41.105Z,1.90
2022-07-31T09:57:41.106Z,1.80
2022-07-31T09:58:41.114Z,2.00
2022-07-31T09:59:41.112Z,1.90
2022-07-31T10:00:41.187Z,1.90
2022-07-31T10:01:41.116Z,2.00
2022-07-31T10:02:41.116Z,2.20
2022-07-31T10:03:41.128Z,2.10
2022-07-31T10:04:41.120Z,1.90
2022-07-31T10:05:41.121Z,2.00
2022-07-31T10:06:41.123Z,2.20
2022-07-31T10:07:41.122Z,2.10
2022-07-31T10:08:41.124Z,2.00
2022-07-31T10:09:41.135Z,2.00
2022-07-31T10:10:41.131Z,1.90
2022-07-31T10:11:41.132Z,2.20
2022-07-31T10:12:41.130Z,2.00
2022-07-31T10:13:42.367Z,2.10
2022-07-31T10:14:41.138Z,2.00
2022-07-31T10:15:41.136Z,2.00
2022-07-31T10:16:41.140Z,2.10
2022-07-31T10:17:41.142Z,2.00
2022-07-31T10:18:44.303Z,2.10
2022-07-31T10:19:41.145Z,2.20
2022-07-31T10:20:41.146Z,2.10
2022-07-31T10:21:41.148Z,2.10
2022-07-31T10:22:41.149Z,2.00
2022-07-31T10:23:41.151Z,2.00
2022-07-31T10:24:41.150Z,1.90
2022-07-31T10:25:41.154Z,2.00
2022-07-31T10:27:10.936Z,2.20
2022-07-31T10:27:41.155Z,2.20
2022-07-31T10:28:41.158Z,2.10
2022-07-31T10:29:41.158Z,1.90
2022-07-31T10:30:41.159Z,1.80
2022-07-31T10:31:41.165Z,1.90
2022-07-31T10:32:41.168Z,1.90
2022-07-31T10:33:43.927Z,2.00
2022-07-31T10:34:41.170Z,2.10
2022-07-31T10:35:41.175Z,1.90
2022-07-31T10:36:41.178Z,1.80
2022-07-31T10:37:41.169Z,2.00
2022-07-31T10:38:41.299Z,1.90
2022-07-31T10:39:41.173Z,1.90
2022-07-31T10:40:41.174Z,2.10
2022-07-31T10:41:41.175Z,1.90
2022-07-31T10:42:41.178Z,1.90
2022-07-31T10:43:41.178Z,2.00
2022-07-31T10:44:41.179Z,2.00
2022-07-31T10:45:41.181Z,1.70
2022-07-31T10:46:41.186Z,1.70
2022-07-31T10:47:48.023Z,2.00
2022-07-31T10:48:41.183Z,1.90
2022-07-31T10:49:41.226Z,2.00
2022-07-31T10:50:41.187Z,1.90
2022-07-31T10:51:41.188Z,2.00
2022-07-31T10:52:41.219Z,1.90
2022-07-31T10:53:50.869Z,2.00
2022-07-31T10:54:41.191Z,1.90
2022-07-31T10:55:41.196Z,2.10
2022-07-31T10:56:41.196Z,2.00
2022-07-31T10:57:56.572Z,2.10
2022-07-31T10:58:41.196Z,2.00
2022-07-31T10:59:44.585Z,1.90
2022-07-31T11:00:41.198Z,2.00
2022-07-31T11:01:41.265Z,1.80
2022-07-31T11:02:41.264Z,2.10
2022-07-31T11:03:41.208Z,2.00
2022-07-31T11:04:41.204Z,2.00
2022-07-31T11:06:01.981Z,2.20
2022-07-31T11:06:41.210Z,1.80
2022-07-31T11:07:41.209Z,2.00
2022-07-31T11:08:41.214Z,1.90
2022-07-31T11:09:50.348Z,2.00
2022-07-31T11:10:41.215Z,1.90
2022-07-31T11:11:41.215Z,1.90
2022-07-31T11:12:41.216Z,2.10
2022-07-31T11:13:41.219Z,2.40
2022-07-31T11:14:41.220Z,2.00
2022-07-31T11:15:41.220Z,2.20
2022-07-31T11:16:41.220Z,2.10
2022-07-31T11:18:22.528Z,2.30
2022-07-31T11:18:41.228Z,2.30
2022-07-31T11:19:41.573Z,2.20
2022-07-31T11:20:41.229Z,2.00
2022-07-31T11:21:41.232Z,2.10
2022-07-31T11:22:41.233Z,2.30
2022-07-31T11:23:41.236Z,2.20
2022-07-31T11:24:41.236Z,2.10
2022-07-31T11:25:41.236Z,2.10
2022-07-31T11:26:42.310Z,2.10
2022-07-31T11:27:41.240Z,2.10
2022-07-31T11:28:41.242Z,2.20
2022-07-31T11:29:59.265Z,2.20
2022-07-31T11:30:41.246Z,2.20
2022-07-31T11:31:41.247Z,2.20
2022-07-31T11:32:41.250Z,2.20
2022-07-31T11:33:42.727Z,2.10
2022-07-31T11:34:41.250Z,2.30
2022-07-31T11:35:41.254Z,2.20
2022-07-31T11:36:41.260Z,2.20
2022-07-31T11:37:57.021Z,2.30
2022-07-31T11:38:41.261Z,2.10
2022-07-31T11:39:41.265Z,2.10
2022-07-31T11:40:41.265Z,2.20
2022-07-31T11:41:44.591Z,2.30
2022-07-31T11:42:41.269Z,2.30
2022-07-31T11:43:41.270Z,2.10
2022-07-31T11:44:41.269Z,2.20
2022-07-31T11:45:41.273Z,2.00
2022-07-31T11:46:41.273Z,2.00
2022-07-31T11:48:11.565Z,2.10
2022-07-31T11:48:45.401Z,2.00
2022-07-31T11:49:49.149Z,2.30
2022-07-31T11:50:41.283Z,2.10
2022-07-31T11:51:41.292Z,2.10
2022-07-31T11:52:41.288Z,2.00
2022-07-31T11:53:41.288Z,2.00
2022-07-31T11:54:41.287Z,2.10
2022-07-31T11:55:41.296Z,2.30
2022-07-31T11:56:41.293Z,2.10
2022-07-31T11:57:51.662Z,2.20
2022-07-31T11:58:41.298Z,2.20
2022-07-31T11:59:45.808Z,2.20
2022-07-31T12:00:41.302Z,2.10
2022-07-31T12:01:41.304Z,2.10
2022-07-31T12:02:41.348Z,2.20
2022-07-31T12:03:41.310Z,2.10
2022-07-31T12:04:41.310Z,2.20
2022-07-31T12:05:41.314Z,2.20
2022-07-31T12:06:41.316Z,2.00
2022-07-31T12:07:41.320Z,2.00
2022-07-31T12:08:41.319Z,2.20
2022-07-31T12:10:01.177Z,2.20
2022-07-31T12:10:41.326Z,2.20
2022-07-31T12:11:41.328Z,2.20
2022-07-31T12:12:41.331Z,2.30
2022-07-31T12:13:41.331Z,2.40
2022-07-31T12:14:41.335Z,2.20
2022-07-31T12:15:41.336Z,2.20
2022-07-31T12:16:41.339Z,2.30
2022-07-31T12:17:41.340Z,2.10
2022-07-31T12:18:41.343Z,2.40
2022-07-31T12:19:41.347Z,2.40
2022-07-31T12:20:41.346Z,2.20
2022-07-31T12:21:41.349Z,2.10
2022-07-31T12:22:41.354Z,2.20
2022-07-31T12:23:42.026Z,2.30
2022-07-31T12:24:41.357Z,2.20
2022-07-31T12:25:41.358Z,2.30
2022-07-31T12:26:41.358Z,2.20
2022-07-31T12:27:41.361Z,2.30
2022-07-31T12:28:41.359Z,2.20
2022-07-31T12:29:41.364Z,2.30
2022-07-31T12:30:41.365Z,2.20
2022-07-31T12:31:41.378Z,2.20
2022-07-31T12:32:41.370Z,2.40
2022-07-31T12:33:41.371Z,2.20
2022-07-31T12:34:41.376Z,2.10
2022-07-31T12:35:55.051Z,2.20
2022-07-31T12:36:41.377Z,2.30
2022-07-31T12:37:41.383Z,2.30
2022-07-31T12:38:45.518Z,2.40
2022-07-31T12:39:54.334Z,2.30
2022-07-31T12:40:41.386Z,2.20
2022-07-31T12:41:41.390Z,2.20
2022-07-31T12:42:42.184Z,2.20
2022-07-31T12:43:50.252Z,2.10
2022-07-31T12:44:41.399Z,2.20
2022-07-31T12:45:41.400Z,2.00
2022-07-31T12:46:41.417Z,2.10
2022-07-31T12:47:41.405Z,2.20
2022-07-31T12:48:45.957Z,2.20
2022-07-31T12:49:41.580Z,2.00
2022-07-31T12:50:41.413Z,2.10
2022-07-31T12:51:44.901Z,2.20
2022-07-31T12:52:41.420Z,1.90
2022-07-31T12:53:41.420Z,2.00
2022-07-31T12:54:41.424Z,2.00
2022-07-31T12:55:41.428Z,2.30
2022-07-31T12:56:41.428Z,2.30
2022-07-31T12:57:41.757Z,2.20
2022-07-31T12:58:41.436Z,2.00
2022-07-31T12:59:41.437Z,2.10
2022-07-31T13:00:41.442Z,2.20
2022-07-31T13:01:41.498Z,2.20
2022-07-31T13:02:41.446Z,2.20
2022-07-31T13:03:45.995Z,2.20
2022-07-31T13:04:41.451Z,2.10
2022-07-31T13:05:41.456Z,2.20
2022-07-31T13:06:41.459Z,2.10
2022-07-31T13:07:41.464Z,2.10
2022-07-31T13:08:41.467Z,2.10
2022-07-31T13:09:41.469Z,2.10
2022-07-31T13:10:41.475Z,2.20
2022-07-31T13:11:46.960Z,2.20
2022-07-31T13:12:41.478Z,2.20
2022-07-31T13:13:41.483Z,2.00
2022-07-31T13:14:41.485Z,2.00
2022-07-31T13:15:41.492Z,2.10